createdAt,value
2023-03-04T00:02:22.997Z,25.80
2023-03-04T00:04:50.390Z,25.40
2023-03-04T00:07:19.076Z,24.20
2023-03-04T00:09:46.831Z,24.90
2023-03-04T00:12:13.794Z,25.60
2023-03-04T00:14:41.502Z,25.70
2023-03-04T00:17:08.650Z,24.40
2023-03-04T00:19:36.038Z,24.30
2023-03-04T00:22:04.389Z,24.20
2023-03-04T00:24:32.382Z,25.20
2023-03-04T00:26:59.656Z,24.80
2023-03-04T00:29:27.242Z,27.20
2023-03-04T00:31:54.437Z,22.20
2023-03-04T00:34:21.588Z,23.60
2023-03-04T00:36:48.717Z,23.00
2023-03-04T00:39:17.746Z,24.30
2023-03-04T00:41:44.961Z,23.80
2023-03-04T00:44:12.320Z,22.40
2023-03-04T00:46:39.128Z,26.10
2023-03-04T00:49:06.055Z,24.10
2023-03-04T00:51:33.031Z,25.40
2023-03-04T00:54:01.027Z,25.80
2023-03-04T00:56:28.261Z,27.20
2023-03-04T00:58:55.605Z,26.50
2023-03-04T01:01:22.603Z,26.80
2023-03-04T01:03:49.779Z,26.40
2023-03-04T01:06:17.027Z,28.00
2023-03-04T01:08:44.436Z,27.90
2023-03-04T01:11:11.280Z,28.00
2023-03-04T01:13:38.168Z,29.00
2023-03-04T01:16:05.454Z,27.60
2023-03-04T01:18:32.910Z,28.50
2023-03-04T01:20:59.878Z,26.10
2023-03-04T01:25:56.363Z,28.70
2023-03-04T01:28:23.737Z,28.60
2023-03-04T01:30:50.536Z,28.40
2023-03-04T01:33:17.358Z,27.50
2023-03-04T01:35:44.272Z,28.60
2023-03-04T01:38:11.193Z,27.80
2023-03-04T01:40:38.599Z,27.10
2023-03-04T01:43:05.961Z,26.40
2023-03-04T01:45:33.887Z,27.00
2023-03-04T01:48:00.800Z,27.50
2023-03-04T01:50:32.134Z,25.00
2023-03-04T01:52:59.065Z,25.90
2023-03-04T01:55:28.765Z,25.10
2023-03-04T01:57:57.572Z,24.80
2023-03-04T02:00:27.258Z,26.50
2023-03-04T02:02:58.567Z,25.70
2023-03-04T02:05:25.814Z,26.70
2023-03-04T02:07:55.425Z,27.40
2023-03-04T02:10:22.947Z,26.40
2023-03-04T02:12:50.957Z,27.10
2023-03-04T02:15:18.131Z,24.70
2023-03-04T02:17:45.209Z,23.70
2023-03-04T02:20:31.028Z,26.80
2023-03-04T02:23:01.923Z,24.60
2023-03-04T02:25:37.272Z,23.10
2023-03-04T02:28:04.379Z,24.30
2023-03-04T02:30:31.396Z,24.30
2023-03-04T02:32:59.594Z,23.10
2023-03-04T02:35:26.948Z,21.60
2023-03-04T02:37:53.880Z,22.20
2023-03-04T02:40:31.499Z,21.80
2023-03-04T02:43:01.129Z,23.00
2023-03-04T02:45:35.780Z,23.50
2023-03-04T02:48:03.623Z,22.70
2023-03-04T02:50:35.494Z,23.20
2023-03-04T02:53:02.397Z,23.60
2023-03-04T02:55:29.753Z,22.80
2023-03-04T02:57:56.590Z,24.50
2023-03-04T03:00:24.178Z,25.40
2023-03-04T03:02:51.682Z,26.00
2023-03-04T03:05:19.168Z,23.70
2023-03-04T03:07:46.193Z,26.40
2023-03-04T03:10:13.451Z,28.60
2023-03-04T03:12:41.017Z,27.70
2023-03-04T03:15:09.090Z,27.20
2023-03-04T03:17:35.983Z,26.80
2023-03-04T03:20:03.859Z,26.90
2023-03-04T03:22:31.056Z,27.20
2023-03-04T03:24:58.004Z,25.10
2023-03-04T03:27:25.269Z,28.00
2023-03-04T03:29:52.694Z,27.80
2023-03-04T03:32:19.645Z,24.80
2023-03-04T03:34:49.100Z,25.60
2023-03-04T03:37:18.556Z,25.40
2023-03-04T03:39:45.437Z,24.90
2023-03-04T03:42:12.303Z,26.50
2023-03-04T03:44:39.131Z,25.20
2023-03-04T03:47:06.102Z,25.70
2023-03-04T03:49:32.909Z,24.90
2023-03-04T03:51:59.750Z,23.80
2023-03-04T03:54:26.561Z,24.40
2023-03-04T03:56:53.428Z,26.50
2023-03-04T03:59:20.269Z,26.80
2023-03-04T04:01:47.094Z,24.30
2023-03-04T04:04:14.184Z,22.80
2023-03-04T04:06:41.126Z,25.10
2023-03-04T04:09:07.956Z,25.60
2023-03-04T04:11:34.902Z,24.20
2023-03-04T04:14:01.751Z,24.90
2023-03-04T04:16:28.696Z,26.00
2023-03-04T04:18:55.529Z,24.70
2023-03-04T04:21:22.444Z,22.60
2023-03-04T04:23:49.211Z,25.40
2023-03-04T04:26:16.040Z,24.70
2023-03-04T04:28:42.919Z,24.50
2023-03-04T04:31:10.422Z,25.70
2023-03-04T04:33:37.907Z,25.80
2023-03-04T04:36:05.711Z,24.30
2023-03-04T04:38:32.514Z,24.30
2023-03-04T04:41:00.089Z,24.30
2023-03-04T04:43:27.193Z,24.40
2023-03-04T04:45:54.302Z,24.80
2023-03-04T04:48:21.190Z,25.40
2023-03-04T04:50:53.661Z,24.30
2023-03-04T04:53:20.470Z,24.80
2023-03-04T04:55:47.319Z,24.60
2023-03-04T04:58:14.119Z,23.50
2023-03-04T05:00:41.015Z,24.80
2023-03-04T05:03:07.970Z,22.80
2023-03-04T05:05:34.796Z,25.60
2023-03-04T05:08:01.591Z,25.20
2023-03-04T05:10:28.415Z,23.40
2023-03-04T05:12:55.242Z,24.00
2023-03-04T05:15:22.181Z,23.00
2023-03-04T05:17:48.986Z,23.40
2023-03-04T05:20:15.933Z,24.50
2023-03-04T05:22:42.788Z,23.00
2023-03-04T05:25:10.780Z,23.20
2023-03-04T05:27:37.589Z,22.60
2023-03-04T05:30:05.052Z,22.60
2023-03-04T05:32:32.075Z,23.30
2023-03-04T05:34:58.955Z,24.50
2023-03-04T05:37:25.874Z,23.90
2023-03-04T05:39:52.706Z,22.30
2023-03-04T05:42:19.559Z,22.20
2023-03-04T05:44:46.391Z,22.80
2023-03-04T05:47:13.206Z,22.20
2023-03-04T05:49:41.232Z,21.50
2023-03-04T05:52:08.146Z,22.40
2023-03-04T05:54:34.975Z,23.00
2023-03-04T05:57:02.649Z,22.60
2023-03-04T05:59:29.509Z,22.40
2023-03-04T06:01:56.625Z,22.50
2023-03-04T06:04:23.458Z,21.70
2023-03-04T06:06:50.309Z,22.60
2023-03-04T06:09:17.318Z,22.20
2023-03-04T06:11:44.133Z,23.60
2023-03-04T06:14:13.912Z,22.30
2023-03-04T06:19:07.616Z,20.90
2023-03-04T06:21:34.473Z,23.20
2023-03-04T06:24:01.450Z,21.70
2023-03-04T06:26:28.304Z,20.80
2023-03-04T06:28:57.202Z,21.70
2023-03-04T06:31:24.001Z,22.10
2023-03-04T06:33:51.313Z,20.00
2023-03-04T06:36:18.260Z,20.00
2023-03-04T06:38:46.121Z,21.50
2023-03-04T06:41:14.154Z,21.50
2023-03-04T06:43:41.283Z,21.20
2023-03-04T06:46:08.559Z,21.20
2023-03-04T06:48:35.803Z,20.30
2023-03-04T06:51:10.756Z,22.10
2023-03-04T06:53:38.785Z,20.10
2023-03-04T06:56:06.452Z,20.20
2023-03-04T06:58:33.686Z,22.20
2023-03-04T07:01:16.545Z,20.90
2023-03-04T07:03:44.153Z,17.70
2023-03-04T07:06:16.106Z,19.10
2023-03-04T07:08:43.740Z,21.80
2023-03-04T07:11:11.672Z,20.50
2023-03-04T07:13:38.736Z,20.40
2023-03-04T07:16:10.560Z,20.90
2023-03-04T07:18:37.586Z,21.00
2023-03-04T07:21:05.668Z,20.70
2023-03-04T07:23:32.990Z,20.90
2023-03-04T07:25:59.885Z,20.80
2023-03-04T07:28:27.463Z,20.30
2023-03-04T07:30:54.447Z,19.00
2023-03-04T07:33:21.487Z,20.60
2023-03-04T07:35:48.442Z,20.90
2023-03-04T07:38:15.417Z,19.80
2023-03-04T07:40:42.229Z,18.10
2023-03-04T07:43:13.109Z,20.30
2023-03-04T07:45:40.115Z,19.40
2023-03-04T07:48:06.937Z,19.00
2023-03-04T07:50:33.766Z,18.10
2023-03-04T07:53:00.642Z,18.00
2023-03-04T07:55:28.123Z,19.20
2023-03-04T07:57:55.058Z,17.60
2023-03-04T08:00:22.264Z,18.20
2023-03-04T08:02:49.192Z,18.40
2023-03-04T08:05:16.237Z,16.70
2023-03-04T08:07:43.102Z,17.50
2023-03-04T08:10:10.841Z,19.30
2023-03-04T08:12:37.749Z,19.00
2023-03-04T08:15:05.063Z,18.50
2023-03-04T08:17:31.993Z,17.40
2023-03-04T08:19:58.909Z,18.90
2023-03-04T08:22:25.883Z,17.30
2023-03-04T08:24:52.812Z,18.00
2023-03-04T08:27:20.444Z,17.30
2023-03-04T08:29:47.272Z,17.80
2023-03-04T08:32:14.421Z,16.90
2023-03-04T08:34:41.339Z,17.10
2023-03-04T08:37:08.256Z,17.90
2023-03-04T08:39:36.308Z,17.00
2023-03-04T08:42:03.542Z,16.00
2023-03-04T08:44:30.492Z,16.30
2023-03-04T08:46:57.454Z,17.70
2023-03-04T08:49:24.370Z,15.30
2023-03-04T08:51:51.297Z,16.80
2023-03-04T08:54:18.203Z,16.60
2023-03-04T08:56:45.175Z,17.60
2023-03-04T08:59:12.143Z,14.90
2023-03-04T09:01:39.228Z,16.30
2023-03-04T09:04:06.138Z,17.50
2023-03-04T09:06:33.242Z,15.60
2023-03-04T09:09:00.127Z,15.40
2023-03-04T09:11:27.076Z,16.60
2023-03-04T09:13:53.951Z,17.40
2023-03-04T09:16:21.505Z,16.20
2023-03-04T09:18:49.067Z,17.00
2023-03-04T09:21:16.262Z,16.90
2023-03-04T09:23:43.301Z,15.90
2023-03-04T09:26:23.881Z,14.90
2023-03-04T09:28:55.930Z,15.20
2023-03-04T09:31:23.724Z,15.90
2023-03-04T09:33:53.959Z,14.00
2023-03-04T09:36:21.106Z,15.40
2023-03-04T09:38:48.388Z,15.70
2023-03-04T09:41:29.814Z,14.70
2023-03-04T09:43:57.992Z,14.40
2023-03-04T09:46:36.381Z,14.10
2023-03-04T09:49:07.011Z,16.70
2023-03-04T09:51:40.202Z,16.00
2023-03-04T09:54:15.856Z,15.30
2023-03-04T09:56:42.900Z,15.00
2023-03-04T09:59:13.431Z,17.10
2023-03-04T10:01:48.205Z,16.70
2023-03-04T10:04:47.630Z,15.00
2023-03-04T10:07:20.388Z,16.20
2023-03-04T10:09:57.681Z,16.30
2023-03-04T10:12:30.452Z,15.20
2023-03-04T10:15:00.125Z,16.10
2023-03-04T10:17:38.304Z,16.30
2023-03-04T10:20:24.042Z,16.10
2023-03-04T10:22:56.546Z,14.80
2023-03-04T10:25:23.377Z,17.10
2023-03-04T10:27:52.459Z,17.70
2023-03-04T10:30:49.868Z,16.10
2023-03-04T10:33:19.529Z,16.80
2023-03-04T10:36:09.340Z,17.90
2023-03-04T10:41:22.794Z,16.90
2023-03-04T10:43:58.906Z,17.40
2023-03-04T10:46:26.928Z,16.30
2023-03-04T10:48:55.319Z,15.40
2023-03-04T10:51:28.155Z,16.70
2023-03-04T10:54:16.442Z,16.40
2023-03-04T10:56:53.713Z,14.30
2023-03-04T10:59:33.205Z,16.30
2023-03-04T11:02:02.485Z,19.30
2023-03-04T11:04:34.589Z,17.70
2023-03-04T11:07:01.422Z,16.60
2023-03-04T11:09:31.657Z,16.10
2023-03-04T11:12:04.577Z,19.10
2023-03-04T11:14:37.700Z,17.00
2023-03-04T11:17:26.398Z,16.50
2023-03-04T11:20:06.069Z,17.60
2023-03-04T11:22:33.524Z,15.60
2023-03-04T11:25:05.969Z,15.40
2023-03-04T11:27:47.846Z,16.00
2023-03-04T11:30:46.553Z,17.40
2023-03-04T11:33:28.594Z,15.20
2023-03-04T11:36:14.807Z,15.40
2023-03-04T11:38:48.332Z,15.20
2023-03-04T11:41:36.059Z,15.60
2023-03-04T11:44:06.899Z,14.00
2023-03-04T11:46:49.323Z,15.10
2023-03-04T11:49:31.707Z,15.60
2023-03-04T11:52:29.156Z,15.00
2023-03-04T11:55:09.013Z,14.80
2023-03-04T12:00:37.241Z,15.50
2023-03-04T12:03:41.747Z,15.00
2023-03-04T12:06:49.785Z,16.40
2023-03-04T12:09:42.856Z,15.60
2023-03-04T12:12:31.462Z,14.10
2023-03-04T12:15:08.383Z,14.60
2023-03-04T12:18:00.574Z,13.90
2023-03-04T12:20:46.325Z,13.70
2023-03-04T12:23:40.489Z,13.30
2023-03-04T12:26:33.581Z,13.30
2023-03-04T12:29:41.069Z,12.90
2023-03-04T12:32:10.930Z,14.00
2023-03-04T12:37:25.946Z,14.30
2023-03-04T12:40:17.328Z,13.00
2023-03-04T12:43:09.274Z,10.90
2023-03-04T12:46:03.002Z,11.20
2023-03-04T12:48:29.958Z,11.80
2023-03-04T12:51:41.347Z,12.20
2023-03-04T12:54:39.368Z,10.80
2023-03-04T12:57:25.193Z,11.20
2023-03-04T13:00:08.985Z,9.70
2023-03-04T13:03:11.359Z,9.30
2023-03-04T13:06:05.369Z,10.40
2023-03-04T13:08:40.040Z,9.70
2023-03-04T13:11:25.854Z,9.10
2023-03-04T13:14:15.303Z,8.70
2023-03-04T13:16:45.667Z,9.80
2023-03-04T13:19:44.482Z,9.70
2023-03-04T13:22:27.001Z,9.90
2023-03-04T13:24:54.970Z,9.00
2023-03-04T13:27:59.435Z,9.80
2023-03-04T13:30:32.221Z,8.40
2023-03-04T13:33:19.017Z,7.90
2023-03-04T13:36:02.170Z,7.70
2023-03-04T13:38:31.115Z,7.70
2023-03-04T13:41:19.526Z,8.10
2023-03-04T13:43:48.276Z,8.10
2023-03-04T13:46:18.332Z,6.60
2023-03-04T13:48:51.219Z,7.80
2023-03-04T13:51:37.777Z,8.70
2023-03-04T13:54:15.482Z,9.00
2023-03-04T13:57:17.224Z,4.50
2023-03-04T13:59:49.473Z,3.50
2023-03-04T14:02:20.571Z,3.50
2023-03-04T14:04:58.004Z,3.60
2023-03-04T14:07:29.265Z,2.90
2023-03-04T14:09:57.711Z,2.70
2023-03-04T14:12:27.564Z,2.70
2023-03-04T14:14:57.643Z,3.30
2023-03-04T14:17:29.930Z,3.20
2023-03-04T14:19:57.752Z,3.40
2023-03-04T14:22:34.060Z,2.90
2023-03-04T14:25:02.813Z,3.40
2023-03-04T14:27:33.237Z,3.40
2023-03-04T14:30:31.850Z,3.70
2023-03-04T14:33:08.714Z,4.50
2023-03-04T14:35:36.720Z,4.20
2023-03-04T14:38:32.678Z,4.60
2023-03-04T14:41:07.195Z,5.30
2023-03-04T14:43:46.012Z,4.60
2023-03-04T14:46:18.480Z,4.20
2023-03-04T14:48:50.604Z,4.70
2023-03-04T14:51:31.554Z,4.70
2023-03-04T14:53:59.239Z,4.10
2023-03-04T14:56:35.214Z,4.40
2023-03-04T14:59:02.751Z,5.20
2023-03-04T15:01:35.287Z,5.60
2023-03-04T15:04:08.068Z,5.40
2023-03-04T15:06:39.393Z,4.60
2023-03-04T15:09:21.003Z,4.40
2023-03-04T15:12:02.079Z,4.30
2023-03-04T15:14:44.395Z,4.40
2023-03-04T15:17:38.316Z,5.20
2023-03-04T15:20:08.997Z,2.80
2023-03-04T15:22:37.291Z,2.50
2023-03-04T15:25:04.352Z,3.40
2023-03-04T15:27:31.570Z,3.60
2023-03-04T15:30:01.924Z,2.30
2023-03-04T15:32:29.942Z,3.70
2023-03-04T15:34:57.701Z,4.00
2023-03-04T15:37:28.163Z,2.90
2023-03-04T15:39:57.872Z,4.10
2023-03-04T15:42:25.558Z,4.30
2023-03-04T15:44:52.443Z,4.90
2023-03-04T15:47:19.445Z,4.80
2023-03-04T15:49:49.271Z,6.70
2023-03-04T15:52:21.400Z,4.00
2023-03-04T15:54:49.929Z,6.00
2023-03-04T15:57:29.669Z,3.00
2023-03-04T15:59:56.624Z,4.40
2023-03-04T16:02:27.361Z,2.60
2023-03-04T16:04:54.499Z,1.50
2023-03-04T16:07:25.068Z,2.60
2023-03-04T16:09:57.242Z,2.80
2023-03-04T16:12:27.809Z,2.80
2023-03-04T16:14:54.939Z,2.80
2023-03-04T16:17:21.908Z,3.50
2023-03-04T16:19:48.766Z,2.20
2023-03-04T16:22:24.329Z,2.60
2023-03-04T16:24:52.441Z,1.80
2023-03-04T16:27:20.097Z,2.30
2023-03-04T16:29:47.005Z,3.40
2023-03-04T16:32:14.462Z,2.20
2023-03-04T16:34:41.394Z,2.20
2023-03-04T16:37:15.728Z,4.10
2023-03-04T16:39:46.204Z,2.90
2023-03-04T16:42:19.240Z,2.50
2023-03-04T16:44:46.704Z,3.10
2023-03-04T16:47:13.605Z,4.20
2023-03-04T16:49:40.974Z,4.10
2023-03-04T16:52:14.914Z,4.70
2023-03-04T16:54:42.659Z,3.40
2023-03-04T16:57:11.230Z,4.20
2023-03-04T16:59:39.661Z,5.60
2023-03-04T17:02:18.134Z,4.80
2023-03-04T17:04:46.766Z,2.90
2023-03-04T17:07:13.739Z,3.20
2023-03-04T17:09:40.965Z,2.00
2023-03-04T17:12:12.142Z,3.00
2023-03-04T17:14:39.968Z,3.00
2023-03-04T17:17:07.894Z,3.70
2023-03-04T17:19:35.098Z,9.90
2023-03-04T17:22:02.463Z,4.20
2023-03-04T17:24:29.649Z,2.50
2023-03-04T17:26:56.749Z,1.90
2023-03-04T17:29:23.713Z,1.90
2023-03-04T17:31:50.605Z,2.30
2023-03-04T17:34:18.917Z,2.80
2023-03-04T17:36:45.823Z,2.60
2023-03-04T17:39:12.893Z,2.90
2023-03-04T17:41:39.767Z,3.40
2023-03-04T17:44:06.732Z,3.00
2023-03-04T17:46:34.129Z,3.10
2023-03-04T17:49:01.208Z,2.00
2023-03-04T17:51:38.088Z,2.40
2023-03-04T17:54:06.782Z,2.70
2023-03-04T17:56:35.107Z,2.60
2023-03-04T17:59:06.432Z,2.50
2023-03-04T18:01:33.533Z,3.30
2023-03-04T18:04:01.259Z,2.50
2023-03-04T18:06:28.186Z,2.80
2023-03-04T18:08:55.097Z,2.60
2023-03-04T18:11:24.638Z,2.60
2023-03-04T18:13:53.381Z,2.90
2023-03-04T18:16:26.737Z,2.90
2023-03-04T18:18:57.790Z,2.80
2023-03-04T18:21:27.226Z,2.50
2023-03-04T18:23:54.442Z,3.00
2023-03-04T18:26:23.605Z,3.60
2023-03-04T18:28:52.026Z,3.60
2023-03-04T18:31:20.265Z,3.90
2023-03-04T18:33:47.380Z,3.10
2023-03-04T18:36:14.792Z,6.40
2023-03-04T18:38:42.124Z,6.20
2023-03-04T18:41:12.558Z,7.90
2023-03-04T18:43:39.733Z,6.90
2023-03-04T18:46:19.991Z,6.20
2023-03-04T18:48:54.059Z,4.10
2023-03-04T18:51:21.024Z,3.80
2023-03-04T18:53:48.077Z,3.80
2023-03-04T18:56:28.211Z,6.50
2023-03-04T18:58:55.416Z,7.20
2023-03-04T19:01:25.198Z,8.50
2023-03-04T19:03:54.530Z,7.30
2023-03-04T19:06:23.068Z,6.90
2023-03-04T19:08:55.311Z,5.50
2023-03-04T19:11:23.139Z,6.40
2023-03-04T19:13:52.820Z,7.20
2023-03-04T19:18:46.790Z,7.80
2023-03-04T19:21:13.941Z,9.20
2023-03-04T19:23:41.375Z,10.10
2023-03-04T19:26:08.517Z,10.30
2023-03-04T19:28:35.815Z,7.10
2023-03-04T19:31:09.530Z,11.90
2023-03-04T19:33:40.986Z,11.60
2023-03-04T19:36:10.038Z,11.10
2023-03-04T19:38:37.242Z,13.90
2023-03-04T19:41:15.953Z,13.90
2023-03-04T19:43:43.311Z,12.10
2023-03-04T19:46:10.760Z,10.80
2023-03-04T19:48:38.486Z,13.30
2023-03-04T19:51:14.528Z,11.40
2023-03-04T19:53:41.955Z,10.10
2023-03-04T19:56:09.117Z,9.40
2023-03-04T19:58:39.113Z,8.80
2023-03-04T20:01:06.553Z,9.90
2023-03-04T20:03:33.753Z,10.30
2023-03-04T20:06:08.378Z,11.00
2023-03-04T20:08:38.286Z,10.30
2023-03-04T20:11:12.854Z,11.20
2023-03-04T20:13:39.765Z,12.90
2023-03-04T20:16:11.252Z,13.40
2023-03-04T20:18:38.675Z,15.10
2023-03-04T20:21:06.081Z,15.70
2023-03-04T20:23:33.968Z,13.30
2023-03-04T20:26:03.157Z,10.60
2023-03-04T20:28:30.973Z,10.90
2023-03-04T20:31:23.699Z,9.40
2023-03-04T20:33:51.967Z,9.80
2023-03-04T20:36:21.378Z,10.20
2023-03-04T20:39:01.533Z,10.80
2023-03-04T20:41:29.442Z,8.50
2023-03-04T20:43:56.624Z,7.70
2023-03-04T20:46:41.430Z,9.90
2023-03-04T20:49:15.096Z,9.20
2023-03-04T20:51:43.020Z,9.00
2023-03-04T20:54:10.593Z,8.10
2023-03-04T20:56:38.233Z,7.10
2023-03-04T20:59:08.891Z,8.30
2023-03-04T21:01:38.260Z,7.10
2023-03-04T21:04:06.111Z,8.10
2023-03-04T21:06:33.199Z,8.60
2023-03-04T21:09:03.645Z,7.30
2023-03-04T21:11:30.681Z,6.90
2023-03-04T21:13:57.995Z,8.60
2023-03-04T21:16:30.142Z,8.50
2023-03-04T21:18:57.072Z,8.20
2023-03-04T21:21:26.723Z,7.40
2023-03-04T21:26:23.026Z,6.10
2023-03-04T21:28:54.364Z,6.20
2023-03-04T21:31:26.194Z,6.10
2023-03-04T21:33:58.814Z,6.10
2023-03-04T21:36:26.437Z,7.70
2023-03-04T21:38:54.052Z,11.20
2023-03-04T21:41:24.154Z,11.40
2023-03-04T21:43:52.074Z,9.10
2023-03-04T21:46:19.381Z,9.90
2023-03-04T21:48:47.928Z,12.00
2023-03-04T21:51:16.769Z,11.00
2023-03-04T21:53:44.185Z,7.10
2023-03-04T21:56:12.374Z,6.00
2023-03-04T21:58:42.322Z,5.60
2023-03-04T22:01:15.108Z,5.90
2023-03-04T22:03:42.402Z,6.30
2023-03-04T22:06:11.006Z,6.00
2023-03-04T22:08:38.944Z,5.80
2023-03-04T22:11:07.599Z,6.10
2023-03-04T22:13:35.356Z,6.00
2023-03-04T22:16:02.560Z,4.80
2023-03-04T22:18:29.611Z,4.80
2023-03-04T22:21:02.315Z,4.60
2023-03-04T22:23:29.768Z,5.30
2023-03-04T22:25:59.656Z,4.60
2023-03-04T22:28:28.658Z,5.40
2023-03-04T22:30:57.096Z,4.30
2023-03-04T22:33:25.331Z,4.00
2023-03-04T22:35:53.007Z,5.10
2023-03-04T22:38:21.278Z,4.90
2023-03-04T22:40:49.388Z,4.60
2023-03-04T22:43:16.534Z,4.60
2023-03-04T22:45:43.661Z,4.60
2023-03-04T22:48:10.907Z,4.70
2023-03-04T22:50:38.176Z,4.90
2023-03-04T22:53:07.248Z,5.50
2023-03-04T22:55:35.485Z,5.40
2023-03-04T22:58:03.798Z,4.80
2023-03-04T23:00:32.070Z,5.30
2023-03-04T23:02:59.395Z,4.90
2023-03-04T23:05:26.648Z,5.30
2023-03-04T23:07:53.925Z,4.60
2023-03-04T23:10:24.242Z,5.30
2023-03-04T23:12:52.829Z,6.40
2023-03-04T23:15:20.334Z,5.70
2023-03-04T23:17:47.978Z,5.90
2023-03-04T23:20:20.980Z,7.00
2023-03-04T23:22:50.311Z,5.90
2023-03-04T23:25:20.113Z,6.20
2023-03-04T23:27:50.071Z,5.40
2023-03-04T23:32:48.305Z,6.00
2023-03-04T23:35:19.281Z,4.50
2023-03-04T23:37:50.522Z,4.90
2023-03-04T23:40:20.690Z,4.50
2023-03-04T23:42:48.809Z,4.90
2023-03-04T23:45:18.236Z,4.30
2023-03-04T23:47:47.783Z,3.50
2023-03-04T23:50:16.274Z,3.60
2023-03-04T23:52:44.791Z,3.40
2023-03-04T23:55:19.057Z,3.70
2023-03-04T23:57:48.612Z,4.00
